createdAt,value
2024-02-05T00:00:22.555Z,10.53
2024-02-05T00:01:24.513Z,10.53
2024-02-05T00:02:17.335Z,10.52
2024-02-05T00:03:17.325Z,10.5
2024-02-05T00:04:17.571Z,10.47
2024-02-05T00:05:17.488Z,10.42
2024-02-05T00:06:17.425Z,10.39
2024-02-05T00:07:17.403Z,10.39
2024-02-05T00:08:17.449Z,10.37
2024-02-05T00:09:17.343Z,10.36
2024-02-05T00:10:17.399Z,10.37
2024-02-05T00:11:17.340Z,10.35
2024-02-05T00:12:17.335Z,10.37
2024-02-05T00:13:17.405Z,10.35
2024-02-05T00:14:17.337Z,10.38
2024-02-05T00:15:17.348Z,10.4
2024-02-05T00:16:17.416Z,10.37
2024-02-05T00:17:17.338Z,10.37
2024-02-05T00:18:17.336Z,10.39
2024-02-05T00:19:17.395Z,10.39
2024-02-05T00:20:19.693Z,10.39
2024-02-05T00:21:22.567Z,10.38
2024-02-05T00:23:17.341Z,10.35
2024-02-05T00:24:17.330Z,10.35
2024-02-05T00:25:17.468Z,10.34
2024-02-05T00:26:17.334Z,10.35
2024-02-05T00:27:17.476Z,10.34
2024-02-05T00:28:17.406Z,10.34
2024-02-05T00:29:17.331Z,10.31
2024-02-05T00:30:17.376Z,10.33
2024-02-05T00:31:17.349Z,10.35
2024-02-05T00:32:17.334Z,10.36
2024-02-05T00:33:17.343Z,10.35
2024-02-05T00:34:17.425Z,10.35
2024-02-05T00:35:17.354Z,10.33
2024-02-05T00:36:17.337Z,10.34
2024-02-05T00:37:17.448Z,10.33
2024-02-05T00:38:17.334Z,10.31
2024-02-05T00:39:17.337Z,10.32
2024-02-05T00:40:17.356Z,10.33
2024-02-05T00:41:19.827Z,10.32
2024-02-05T00:42:22.710Z,10.34
2024-02-05T00:44:17.333Z,10.36
2024-02-05T00:45:17.378Z,10.38
2024-02-05T00:46:17.385Z,10.39
2024-02-05T00:47:17.329Z,10.37
2024-02-05T00:48:17.567Z,10.36
2024-02-05T00:49:17.379Z,10.35
2024-02-05T00:50:17.366Z,10.36
2024-02-05T00:51:17.360Z,10.39
2024-02-05T00:52:17.359Z,10.38
2024-02-05T00:53:17.335Z,10.4
2024-02-05T00:54:17.347Z,10.38
2024-02-05T00:55:17.367Z,10.41
2024-02-05T00:56:17.328Z,10.42
2024-02-05T00:57:17.326Z,10.46
2024-02-05T00:58:17.351Z,10.45
2024-02-05T00:59:17.332Z,10.45
2024-02-05T01:00:17.354Z,10.46
2024-02-05T01:01:17.367Z,10.47
2024-02-05T01:02:19.927Z,10.43
2024-02-05T01:03:22.791Z,10.42
2024-02-05T01:05:17.529Z,10.45
2024-02-05T01:06:17.429Z,10.44
2024-02-05T01:07:17.379Z,10.45
2024-02-05T01:08:17.350Z,10.43
2024-02-05T01:09:17.578Z,10.43
2024-02-05T01:10:17.515Z,10.43
2024-02-05T01:11:17.337Z,10.43
2024-02-05T01:12:17.501Z,10.43
2024-02-05T01:13:17.391Z,10.38
2024-02-05T01:14:17.340Z,10.36
2024-02-05T01:15:17.349Z,10.34
2024-02-05T01:16:17.428Z,10.34
2024-02-05T01:17:17.335Z,10.35
2024-02-05T01:18:17.387Z,10.35
2024-02-05T01:19:17.479Z,10.33
2024-02-05T01:20:17.345Z,10.33
2024-02-05T01:21:17.381Z,10.34
2024-02-05T01:22:17.426Z,10.35
2024-02-05T01:23:20.010Z,10.36
2024-02-05T01:24:22.901Z,10.41
2024-02-05T01:26:17.350Z,10.42
2024-02-05T01:27:17.620Z,10.42
2024-02-05T01:28:17.415Z,10.43
2024-02-05T01:29:17.347Z,10.44
2024-02-05T01:30:17.745Z,10.45
2024-02-05T01:31:17.427Z,10.45
2024-02-05T01:32:17.332Z,10.45
2024-02-05T01:33:17.617Z,10.46
2024-02-05T01:34:17.400Z,10.46
2024-02-05T01:35:17.335Z,10.44
2024-02-05T01:36:17.341Z,10.43
2024-02-05T01:37:17.365Z,10.42
2024-02-05T01:38:17.340Z,10.41
2024-02-05T01:39:17.332Z,10.43
2024-02-05T01:40:17.372Z,10.43
2024-02-05T01:41:17.350Z,10.45
2024-02-05T01:42:17.329Z,10.45
2024-02-05T01:43:17.348Z,10.45
2024-02-05T01:44:20.068Z,10.48
2024-02-05T01:45:22.911Z,10.46
2024-02-05T01:47:17.445Z,10.49
2024-02-05T01:48:17.418Z,10.53
2024-02-05T01:49:17.667Z,10.53
2024-02-05T01:50:17.332Z,10.53
2024-02-05T01:51:17.541Z,10.54
2024-02-05T01:52:17.345Z,10.51
2024-02-05T01:53:17.349Z,10.51
2024-02-05T01:54:17.402Z,10.53
2024-02-05T01:55:17.354Z,10.54
2024-02-05T01:56:17.338Z,10.56
2024-02-05T01:57:17.350Z,10.57
2024-02-05T01:58:17.378Z,10.54
2024-02-05T01:59:17.324Z,10.57
2024-02-05T02:00:17.357Z,10.57
2024-02-05T02:01:17.367Z,10.54
2024-02-05T02:02:17.360Z,10.49
2024-02-05T02:03:17.328Z,10.48
2024-02-05T02:04:17.447Z,10.44
2024-02-05T02:05:20.218Z,10.41
2024-02-05T02:06:23.353Z,10.42
2024-02-05T02:08:17.338Z,10.45
2024-02-05T02:09:17.354Z,10.47
2024-02-05T02:10:17.349Z,10.48
2024-02-05T02:11:17.341Z,10.46
2024-02-05T02:12:17.349Z,10.5
2024-02-05T02:13:20.586Z,10.54
2024-02-05T02:14:17.354Z,10.56
2024-02-05T02:15:17.533Z,10.57
2024-02-05T02:16:17.482Z,10.57
2024-02-05T02:17:17.349Z,10.57
2024-02-05T02:18:17.370Z,10.58
2024-02-05T02:19:17.376Z,10.58
2024-02-05T02:20:17.397Z,10.6
2024-02-05T02:21:17.341Z,10.64
2024-02-05T02:22:17.368Z,10.62
2024-02-05T02:23:17.351Z,10.63
2024-02-05T02:24:17.337Z,10.65
2024-02-05T02:25:17.368Z,10.64
2024-02-05T02:26:20.246Z,10.65
2024-02-05T02:27:23.412Z,10.67
2024-02-05T02:29:17.356Z,10.69
2024-02-05T02:30:17.365Z,10.68
2024-02-05T02:31:17.417Z,10.68
2024-02-05T02:32:17.335Z,10.7
2024-02-05T02:33:17.379Z,10.69
2024-02-05T02:34:17.411Z,10.74
2024-02-05T02:35:17.345Z,10.74
2024-02-05T02:36:17.331Z,10.74
2024-02-05T02:37:17.361Z,10.71
2024-02-05T02:38:17.364Z,10.7
2024-02-05T02:39:17.336Z,10.73
2024-02-05T02:40:17.356Z,10.75
2024-02-05T02:41:17.337Z,10.76
2024-02-05T02:42:17.328Z,10.74
2024-02-05T02:43:17.508Z,10.74
2024-02-05T02:44:17.342Z,10.76
2024-02-05T02:45:17.337Z,10.76
2024-02-05T02:46:17.370Z,10.73
2024-02-05T02:47:20.302Z,10.71
2024-02-05T02:48:23.355Z,10.72
2024-02-05T02:50:17.337Z,10.73
2024-02-05T02:51:17.333Z,10.74
2024-02-05T02:52:17.336Z,10.73
2024-02-05T02:53:17.373Z,10.73
2024-02-05T02:54:17.338Z,10.72
2024-02-05T02:55:17.348Z,10.74
2024-02-05T02:56:17.335Z,10.68
2024-02-05T02:57:17.338Z,10.69
2024-02-05T02:58:17.466Z,10.69
2024-02-05T02:59:17.337Z,10.7
2024-02-05T03:00:17.329Z,10.69
2024-02-05T03:01:17.389Z,10.73
2024-02-05T03:02:17.333Z,10.73
2024-02-05T03:03:17.387Z,10.71
2024-02-05T03:04:17.575Z,10.71
2024-02-05T03:05:17.324Z,10.73
2024-02-05T03:06:17.347Z,10.73
2024-02-05T03:07:17.399Z,10.71
2024-02-05T03:08:20.438Z,10.71
2024-02-05T03:09:23.397Z,10.73
2024-02-05T03:11:17.339Z,10.71
2024-02-05T03:12:17.337Z,10.74
2024-02-05T03:13:20.405Z,10.71
2024-02-05T03:14:17.341Z,10.71
2024-02-05T03:15:17.336Z,10.69
2024-02-05T03:16:17.439Z,10.67
2024-02-05T03:17:17.344Z,10.7
2024-02-05T03:18:17.430Z,10.68
2024-02-05T03:19:17.385Z,10.7
2024-02-05T03:20:17.330Z,10.68
2024-02-05T03:21:17.336Z,10.68
2024-02-05T03:22:17.396Z,10.69
2024-02-05T03:23:17.393Z,10.69
2024-02-05T03:24:17.336Z,10.7
2024-02-05T03:25:17.582Z,10.72
2024-02-05T03:26:17.336Z,10.71
2024-02-05T03:27:17.336Z,10.72
2024-02-05T03:28:17.559Z,10.72
2024-02-05T03:29:20.669Z,10.72
2024-02-05T03:30:23.567Z,10.7
2024-02-05T03:32:17.442Z,10.67
2024-02-05T03:33:17.408Z,10.66
2024-02-05T03:34:17.454Z,10.7
2024-02-05T03:35:17.421Z,10.68
2024-02-05T03:36:17.335Z,10.68
2024-02-05T03:37:17.363Z,10.73
2024-02-05T03:38:17.336Z,10.69
2024-02-05T03:39:17.357Z,10.72
2024-02-05T03:40:17.384Z,10.7
2024-02-05T03:41:17.338Z,10.7
2024-02-05T03:42:17.354Z,10.69
2024-02-05T03:43:17.378Z,10.68
2024-02-05T03:44:17.334Z,10.67
2024-02-05T03:45:17.332Z,10.67
2024-02-05T03:46:17.769Z,10.68
2024-02-05T03:47:17.333Z,10.66
2024-02-05T03:48:17.331Z,10.67
2024-02-05T03:49:17.534Z,10.68
2024-02-05T03:50:20.754Z,10.66
2024-02-05T03:51:23.591Z,10.65
2024-02-05T03:53:17.541Z,10.62
2024-02-05T03:54:17.351Z,10.64
2024-02-05T03:55:17.442Z,10.61
2024-02-05T03:56:17.334Z,10.65
2024-02-05T03:57:17.347Z,10.62
2024-02-05T03:58:17.395Z,10.66
2024-02-05T03:59:17.349Z,10.65
2024-02-05T04:00:17.340Z,10.63
2024-02-05T04:01:17.397Z,10.64
2024-02-05T04:02:17.332Z,10.64
2024-02-05T04:03:17.401Z,10.59
2024-02-05T04:04:17.366Z,10.61
2024-02-05T04:05:17.348Z,10.62
2024-02-05T04:06:17.363Z,10.64
2024-02-05T04:07:17.740Z,10.62
2024-02-05T04:08:17.338Z,10.63
2024-02-05T04:09:17.326Z,10.6
2024-02-05T04:10:17.712Z,10.56
2024-02-05T04:11:20.687Z,10.59
2024-02-05T04:12:23.670Z,10.62
2024-02-05T04:14:17.386Z,10.57
2024-02-05T04:15:17.344Z,10.6
2024-02-05T04:16:17.363Z,10.6
2024-02-05T04:17:17.429Z,10.6
2024-02-05T04:18:17.357Z,10.57
2024-02-05T04:19:17.390Z,10.57
2024-02-05T04:20:17.481Z,10.55
2024-02-05T04:21:17.344Z,10.53
2024-02-05T04:22:17.372Z,10.54
2024-02-05T04:23:17.341Z,10.58
2024-02-05T04:24:17.345Z,10.61
2024-02-05T04:25:17.401Z,10.58
2024-02-05T04:26:17.337Z,10.57
2024-02-05T04:27:17.344Z,10.54
2024-02-05T04:28:17.352Z,10.54
2024-02-05T04:29:17.331Z,10.55
2024-02-05T04:30:17.452Z,10.52
2024-02-05T04:31:17.505Z,10.48
2024-02-05T04:32:17.343Z,10.48
2024-02-05T04:33:17.781Z,10.52
2024-02-05T04:34:20.980Z,10.47
2024-02-05T04:35:23.959Z,10.47
2024-02-05T04:37:17.345Z,10.45
2024-02-05T04:38:17.334Z,10.42
2024-02-05T04:39:17.342Z,10.42
2024-02-05T04:40:17.390Z,10.43
2024-02-05T04:41:17.345Z,10.42
2024-02-05T04:42:17.349Z,10.42
2024-02-05T04:43:17.431Z,10.41
2024-02-05T04:44:17.428Z,10.38
2024-02-05T04:45:17.340Z,10.39
2024-02-05T04:46:17.377Z,10.39
2024-02-05T04:47:17.486Z,10.39
2024-02-05T04:48:17.329Z,10.41
2024-02-05T04:49:17.399Z,10.4
2024-02-05T04:50:17.533Z,10.37
2024-02-05T04:51:17.339Z,10.38
2024-02-05T04:52:17.396Z,10.38
2024-02-05T04:53:17.343Z,10.39
2024-02-05T04:54:17.830Z,10.37
2024-02-05T04:55:21.263Z,10.33
2024-02-05T04:56:23.961Z,10.34
2024-02-05T04:58:17.407Z,10.38
2024-02-05T04:59:17.336Z,10.4
2024-02-05T05:00:17.347Z,10.36
2024-02-05T05:01:17.417Z,10.36
2024-02-05T05:02:17.386Z,10.39
2024-02-05T05:03:17.334Z,10.4
2024-02-05T05:04:17.373Z,10.34
2024-02-05T05:05:17.388Z,10.34
2024-02-05T05:06:17.395Z,10.36
2024-02-05T05:07:17.392Z,10.39
2024-02-05T05:08:17.335Z,10.39
2024-02-05T05:09:17.524Z,10.35
2024-02-05T05:10:17.423Z,10.35
2024-02-05T05:11:17.332Z,10.34
2024-02-05T05:12:17.456Z,10.35
2024-02-05T05:13:17.416Z,10.35
2024-02-05T05:14:17.363Z,10.34
2024-02-05T05:15:18.058Z,10.31
2024-02-05T05:16:21.158Z,10.32
2024-02-05T05:17:24.090Z,10.32
2024-02-05T05:19:17.371Z,10.28
2024-02-05T05:20:17.371Z,10.29
2024-02-05T05:21:17.357Z,10.32
2024-02-05T05:22:17.387Z,10.3
2024-02-05T05:23:17.339Z,10.29
2024-02-05T05:24:17.339Z,10.3
2024-02-05T05:25:17.400Z,10.29
2024-02-05T05:26:17.522Z,10.3
2024-02-05T05:27:17.354Z,10.31
2024-02-05T05:28:17.389Z,10.28
2024-02-05T05:29:17.335Z,10.27
2024-02-05T05:30:17.359Z,10.25
2024-02-05T05:31:17.354Z,10.27
2024-02-05T05:32:17.331Z,10.26
2024-02-05T05:33:17.395Z,10.26
2024-02-05T05:34:17.429Z,10.27
2024-02-05T05:35:17.534Z,10.27
2024-02-05T05:36:18.031Z,10.26
2024-02-05T05:37:21.711Z,10.27
2024-02-05T05:38:24.333Z,10.26
2024-02-05T05:40:17.425Z,10.27
2024-02-05T05:41:17.403Z,10.19
2024-02-05T05:42:17.457Z,10.2
2024-02-05T05:43:17.369Z,10.2
2024-02-05T05:44:17.337Z,10.19
2024-02-05T05:45:17.391Z,10.18
2024-02-05T05:46:17.433Z,10.24
2024-02-05T05:47:17.726Z,10.24
2024-02-05T05:48:17.346Z,10.25
2024-02-05T05:49:17.378Z,10.26
2024-02-05T05:50:17.700Z,10.27
2024-02-05T05:51:17.738Z,10.26
2024-02-05T05:52:17.415Z,10.23
2024-02-05T05:53:17.326Z,10.23
2024-02-05T05:54:17.339Z,10.26
2024-02-05T05:55:17.392Z,10.28
2024-02-05T05:56:17.337Z,10.25
2024-02-05T05:57:18.411Z,10.22
2024-02-05T05:58:21.402Z,10.19
2024-02-05T05:59:24.184Z,10.19
2024-02-05T06:01:17.435Z,10.21
2024-02-05T06:02:17.323Z,10.18
2024-02-05T06:03:17.335Z,10.2
2024-02-05T06:04:17.395Z,10.21
2024-02-05T06:05:17.381Z,10.18
2024-02-05T06:06:17.342Z,10.2
2024-02-05T06:07:17.372Z,10.22
2024-02-05T06:08:17.547Z,10.21
2024-02-05T06:09:17.336Z,10.2
2024-02-05T06:10:17.366Z,10.22
2024-02-05T06:11:17.379Z,10.23
2024-02-05T06:12:17.339Z,10.24
2024-02-05T06:13:17.438Z,10.21
2024-02-05T06:14:17.360Z,10.21
2024-02-05T06:15:17.337Z,10.21
2024-02-05T06:16:17.429Z,10.21
2024-02-05T06:17:17.340Z,10.24
2024-02-05T06:18:18.371Z,10.26
2024-02-05T06:19:21.869Z,10.23
2024-02-05T06:20:24.516Z,10.23
2024-02-05T06:22:17.405Z,10.2
2024-02-05T06:23:17.339Z,10.2
2024-02-05T06:24:17.360Z,10.2
2024-02-05T06:25:17.419Z,10.25
2024-02-05T06:26:17.339Z,10.26
2024-02-05T06:27:17.331Z,10.26
2024-02-05T06:28:17.387Z,10.27
2024-02-05T06:29:17.532Z,10.27
2024-02-05T06:30:17.333Z,10.27
2024-02-05T06:31:17.359Z,10.27
2024-02-05T06:32:17.386Z,10.24
2024-02-05T06:33:17.372Z,10.26
2024-02-05T06:34:17.390Z,10.24
2024-02-05T06:35:17.372Z,10.22
2024-02-05T06:36:17.335Z,10.21
2024-02-05T06:37:17.401Z,10.2
2024-02-05T06:38:17.327Z,10.21
2024-02-05T06:39:18.272Z,10.2
2024-02-05T06:40:21.847Z,10.2
2024-02-05T06:41:24.339Z,10.19
2024-02-05T06:43:17.398Z,10.24
2024-02-05T06:44:21.188Z,10.25
2024-02-05T06:45:17.359Z,10.21
2024-02-05T06:46:17.458Z,10.23
2024-02-05T06:47:17.330Z,10.21
2024-02-05T06:48:17.372Z,10.18
2024-02-05T06:49:17.451Z,10.21
2024-02-05T06:50:17.341Z,10.17
2024-02-05T06:51:17.329Z,10.2
2024-02-05T06:52:17.367Z,10.23
2024-02-05T06:53:17.504Z,10.23
2024-02-05T06:54:17.336Z,10.23
2024-02-05T06:55:17.384Z,10.21
2024-02-05T06:56:17.336Z,10.19
2024-02-05T06:57:17.348Z,10.18
2024-02-05T06:58:17.361Z,10.17
2024-02-05T06:59:17.323Z,10.18
2024-02-05T07:00:17.340Z,10.2
2024-02-05T07:01:19.953Z,10.19
2024-02-05T07:02:22.940Z,10.16
2024-02-05T07:04:17.367Z,10.13
2024-02-05T07:05:17.359Z,10.14
2024-02-05T07:06:17.350Z,10.14
2024-02-05T07:07:17.369Z,10.14
2024-02-05T07:08:17.534Z,10.16
2024-02-05T07:09:17.404Z,10.13
2024-02-05T07:10:17.407Z,10.16
2024-02-05T07:11:17.593Z,10.13
2024-02-05T07:12:17.359Z,10.11
2024-02-05T07:13:17.382Z,10.1
2024-02-05T07:14:17.429Z,10.11
2024-02-05T07:15:17.345Z,10.13
2024-02-05T07:16:17.388Z,10.14
2024-02-05T07:17:17.342Z,10.13
2024-02-05T07:18:17.374Z,10.13
2024-02-05T07:19:17.435Z,10.15
2024-02-05T07:20:17.346Z,10.11
2024-02-05T07:21:18.456Z,10.11
2024-02-05T07:22:21.810Z,10.12
2024-02-05T07:23:24.979Z,10.1
2024-02-05T07:25:17.468Z,10.16
2024-02-05T07:26:17.404Z,10.17
2024-02-05T07:27:17.342Z,10.14
2024-02-05T07:28:17.380Z,10.12
2024-02-05T07:29:17.331Z,10.13
2024-02-05T07:30:17.414Z,10.12
2024-02-05T07:31:17.610Z,10.16
2024-02-05T07:32:17.493Z,10.14
2024-02-05T07:33:17.471Z,10.14
2024-02-05T07:34:17.389Z,10.13
2024-02-05T07:35:17.690Z,10.12
2024-02-05T07:36:17.569Z,10.12
2024-02-05T07:37:17.537Z,10.1
2024-02-05T07:38:17.801Z,10.07
2024-02-05T07:39:17.346Z,10.09
2024-02-05T07:40:17.393Z,10.12
2024-02-05T07:41:17.330Z,10.12
2024-02-05T07:42:17.330Z,10.13
2024-02-05T07:43:17.349Z,10.1
2024-02-05T07:44:18.915Z,10.12
2024-02-05T07:45:22.197Z,10.13
2024-02-05T07:46:23.801Z,10.11
2024-02-05T07:47:17.339Z,10.1
2024-02-05T07:48:17.391Z,10.1
2024-02-05T07:49:17.403Z,10.12
2024-02-05T07:50:17.332Z,10.12
2024-02-05T07:51:17.476Z,10.1
2024-02-05T07:52:17.354Z,10.12
2024-02-05T07:53:17.365Z,10.11
2024-02-05T07:54:17.370Z,10.08
2024-02-05T07:55:17.376Z,10.11
2024-02-05T07:56:17.343Z,10.12
2024-02-05T07:57:17.341Z,10.11
2024-02-05T07:58:17.518Z,10.09
2024-02-05T07:59:17.357Z,10.08
2024-02-05T08:00:17.351Z,10.1
2024-02-05T08:01:17.361Z,10.11
2024-02-05T08:02:17.535Z,10.1
2024-02-05T08:03:17.482Z,10.11
2024-02-05T08:04:17.392Z,10.11
2024-02-05T08:05:19.034Z,10.13
2024-02-05T08:06:22.098Z,10.13
2024-02-05T08:07:23.948Z,10.13
2024-02-05T08:08:17.594Z,10.13
2024-02-05T08:09:17.361Z,10.12
2024-02-05T08:10:17.689Z,10.12
2024-02-05T08:11:17.633Z,10.11
2024-02-05T08:12:17.836Z,10.16
2024-02-05T08:13:17.379Z,10.13
2024-02-05T08:14:17.341Z,10.15
2024-02-05T08:15:17.338Z,10.17
2024-02-05T08:16:17.440Z,10.18
2024-02-05T08:17:17.342Z,10.19
2024-02-05T08:18:17.385Z,10.21
2024-02-05T08:19:17.401Z,10.22
2024-02-05T08:20:17.348Z,10.2
2024-02-05T08:21:17.377Z,10.17
2024-02-05T08:22:17.368Z,10.2
2024-02-05T08:23:17.327Z,10.22
2024-02-05T08:24:17.344Z,10.22
2024-02-05T08:25:17.356Z,10.21
2024-02-05T08:26:19.133Z,10.21
2024-02-05T08:27:22.121Z,10.23
2024-02-05T08:28:24.125Z,10.21
2024-02-05T08:29:17.384Z,10.25
2024-02-05T08:30:17.360Z,10.25
2024-02-05T08:31:17.491Z,10.26
2024-02-05T08:32:17.334Z,10.26
2024-02-05T08:33:17.381Z,10.24
2024-02-05T08:34:17.439Z,10.23
2024-02-05T08:35:17.326Z,10.21
2024-02-05T08:36:17.343Z,10.21
2024-02-05T08:37:17.346Z,10.19
2024-02-05T08:38:17.337Z,10.22
2024-02-05T08:39:17.326Z,10.24
2024-02-05T08:40:17.545Z,10.22
2024-02-05T08:41:17.336Z,10.23
2024-02-05T08:42:24.713Z,10.2
2024-02-05T08:43:17.403Z,10.18
2024-02-05T08:44:17.329Z,10.18
2024-02-05T08:45:17.339Z,10.19
2024-02-05T08:46:17.450Z,10.19
2024-02-05T08:47:19.139Z,10.19
2024-02-05T08:48:22.372Z,10.21
2024-02-05T08:49:24.153Z,10.22
2024-02-05T08:50:17.491Z,10.18
2024-02-05T08:51:17.343Z,10.21
2024-02-05T08:52:17.340Z,10.24
2024-02-05T08:53:17.361Z,10.24
2024-02-05T08:54:17.333Z,10.24
2024-02-05T08:55:17.374Z,10.23
2024-02-05T08:56:17.337Z,10.22
2024-02-05T08:57:17.334Z,10.21
2024-02-05T08:58:17.370Z,10.2
2024-02-05T08:59:17.344Z,10.24
2024-02-05T09:00:17.347Z,10.21
2024-02-05T09:01:17.620Z,10.24
2024-02-05T09:02:18.406Z,10.24
2024-02-05T09:03:17.372Z,10.25
2024-02-05T09:04:17.431Z,10.27
2024-02-05T09:05:17.445Z,10.23
2024-02-05T09:06:17.442Z,10.24
2024-02-05T09:07:17.347Z,10.23
2024-02-05T09:08:19.430Z,10.23
2024-02-05T09:09:22.283Z,10.27
2024-02-05T09:10:24.242Z,10.27
2024-02-05T09:11:17.328Z,10.26
2024-02-05T09:12:17.344Z,10.22
2024-02-05T09:13:17.527Z,10.23
2024-02-05T09:14:17.344Z,10.25
2024-02-05T09:15:17.442Z,10.25
2024-02-05T09:16:17.356Z,10.25
2024-02-05T09:17:17.327Z,10.25
2024-02-05T09:18:17.338Z,10.27
2024-02-05T09:19:17.364Z,10.27
2024-02-05T09:20:17.370Z,10.25
2024-02-05T09:21:17.337Z,10.26
2024-02-05T09:22:17.496Z,10.27
2024-02-05T09:23:17.346Z,10.22
2024-02-05T09:24:17.333Z,10.21
2024-02-05T09:25:17.831Z,10.23
2024-02-05T09:26:17.334Z,10.26
2024-02-05T09:27:17.334Z,10.26
2024-02-05T09:28:17.354Z,10.24
2024-02-05T09:29:19.491Z,10.26
2024-02-05T09:30:22.474Z,10.26
2024-02-05T09:31:24.229Z,10.26
2024-02-05T09:32:17.329Z,10.27
2024-02-05T09:33:17.427Z,10.28
2024-02-05T09:34:17.366Z,10.28
2024-02-05T09:35:17.460Z,10.27
2024-02-05T09:36:17.355Z,10.27
2024-02-05T09:37:17.377Z,10.26
2024-02-05T09:38:17.343Z,10.28
2024-02-05T09:39:17.331Z,10.26
2024-02-05T09:40:17.367Z,10.29
2024-02-05T09:41:17.343Z,10.27
2024-02-05T09:42:17.322Z,10.28
2024-02-05T09:43:18.441Z,10.29
2024-02-05T09:44:17.344Z,10.32
2024-02-05T09:45:17.348Z,10.32
2024-02-05T09:46:17.468Z,10.31
2024-02-05T09:47:17.334Z,10.3
2024-02-05T09:48:27.262Z,10.31
2024-02-05T09:49:17.350Z,10.35
2024-02-05T09:50:19.756Z,10.36
2024-02-05T09:51:22.462Z,10.38
2024-02-05T09:52:24.347Z,10.4
2024-02-05T09:53:17.342Z,10.4
2024-02-05T09:54:22.122Z,10.42
2024-02-05T09:55:17.367Z,10.45
2024-02-05T09:56:17.342Z,10.45
2024-02-05T09:57:17.334Z,1.24
2024-02-05T09:58:17.364Z,10.42
2024-02-05T09:59:17.336Z,10.43
2024-02-05T10:00:17.341Z,10.44
2024-02-05T10:01:17.375Z,10.41
2024-02-05T10:02:18.362Z,10.46
2024-02-05T10:03:17.341Z,10.46
2024-02-05T10:04:17.426Z,10.46
2024-02-05T10:05:17.473Z,10.49
2024-02-05T10:06:17.324Z,10.5
2024-02-05T10:07:18.519Z,10.48
2024-02-05T10:08:17.385Z,10.5
2024-02-05T10:09:17.350Z,10.5
2024-02-05T10:10:17.456Z,10.47
2024-02-05T10:11:19.669Z,10.49
2024-02-05T10:12:22.414Z,10.48
2024-02-05T10:13:24.419Z,10.52
2024-02-05T10:14:17.332Z,10.58
2024-02-05T10:15:17.346Z,10.61
2024-02-05T10:16:17.367Z,10.57
2024-02-05T10:17:17.322Z,10.55
2024-02-05T10:18:17.394Z,10.56
2024-02-05T10:19:17.410Z,10.53
2024-02-05T10:20:17.517Z,10.53
2024-02-05T10:21:17.344Z,10.52
2024-02-05T10:22:17.424Z,10.52
2024-02-05T10:23:17.329Z,10.49
2024-02-05T10:24:17.427Z,10.49
2024-02-05T10:25:17.629Z,10.48
2024-02-05T10:26:17.360Z,10.5
2024-02-05T10:27:17.377Z,10.63
2024-02-05T10:28:17.565Z,10.67
2024-02-05T10:29:17.334Z,10.65
2024-02-05T10:30:17.329Z,10.63
2024-02-05T10:31:17.355Z,10.62
2024-02-05T10:32:19.679Z,10.65
2024-02-05T10:33:23.015Z,10.67
2024-02-05T10:34:24.626Z,10.65
2024-02-05T10:35:17.402Z,10.62
2024-02-05T10:36:17.351Z,10.59
2024-02-05T10:37:17.390Z,10.65
2024-02-05T10:38:17.337Z,10.62
2024-02-05T10:39:17.485Z,10.64
2024-02-05T10:40:17.365Z,10.62
2024-02-05T10:41:20.461Z,10.7
2024-02-05T10:42:17.424Z,10.72
2024-02-05T10:43:17.370Z,10.77
2024-02-05T10:44:25.138Z,10.71
2024-02-05T10:45:17.339Z,10.66
2024-02-05T10:46:17.431Z,10.67
2024-02-05T10:47:17.415Z,10.69
2024-02-05T10:48:17.399Z,10.72
2024-02-05T10:49:17.433Z,10.73
2024-02-05T10:50:17.384Z,10.73
2024-02-05T10:51:17.342Z,10.76
2024-02-05T10:52:17.565Z,10.8
2024-02-05T10:53:17.334Z,10.83
2024-02-05T10:54:19.959Z,10.85
2024-02-05T10:55:22.836Z,10.85
2024-02-05T10:57:17.595Z,10.87
2024-02-05T10:58:17.373Z,11.04
2024-02-05T10:59:17.328Z,11.09
2024-02-05T11:00:17.335Z,11.06
2024-02-05T11:01:17.615Z,10.99
2024-02-05T11:02:17.578Z,10.9
2024-02-05T11:03:17.347Z,10.84
2024-02-05T11:04:17.588Z,10.81
2024-02-05T11:05:17.371Z,10.86
2024-02-05T11:06:17.348Z,10.9
2024-02-05T11:07:17.847Z,10.93
2024-02-05T11:08:17.381Z,10.98
2024-02-05T11:09:17.340Z,11.08
2024-02-05T11:10:17.341Z,11.18
2024-02-05T11:11:17.342Z,11.2
2024-02-05T11:12:17.649Z,11.21
2024-02-05T11:13:17.377Z,11.16
2024-02-05T11:14:17.337Z,11.19
2024-02-05T11:15:20.013Z,11.18
2024-02-05T11:16:23.036Z,11.16
2024-02-05T11:18:17.354Z,11.31
2024-02-05T11:19:17.407Z,11.33
2024-02-05T11:20:17.386Z,11.35
2024-02-05T11:21:17.344Z,11.28
2024-02-05T11:22:17.732Z,11.21
2024-02-05T11:23:17.344Z,11.27
2024-02-05T11:24:17.349Z,11.28
2024-02-05T11:25:17.421Z,11.39
2024-02-05T11:26:17.331Z,11.38
2024-02-05T11:27:17.332Z,11.39
2024-02-05T11:28:17.375Z,11.38
2024-02-05T11:29:17.375Z,11.41
2024-02-05T11:30:17.367Z,11.5
2024-02-05T11:31:17.343Z,11.48
2024-02-05T11:32:17.344Z,11.4
2024-02-05T11:33:17.374Z,11.32
2024-02-05T11:34:17.414Z,11.44
2024-02-05T11:35:17.438Z,11.45
2024-02-05T11:36:20.137Z,11.54
2024-02-05T11:37:23.066Z,11.61
2024-02-05T11:39:17.375Z,11.54
2024-02-05T11:40:17.424Z,11.56
2024-02-05T11:41:17.342Z,11.55
2024-02-05T11:42:17.337Z,11.45
2024-02-05T11:43:17.721Z,11.37
2024-02-05T11:44:17.335Z,11.46
2024-02-05T11:45:17.358Z,11.53
2024-02-05T11:46:17.572Z,11.57
2024-02-05T11:47:17.336Z,11.61
2024-02-05T11:48:17.388Z,11.66
2024-02-05T11:49:17.393Z,11.84
2024-02-05T11:50:17.386Z,12
2024-02-05T11:51:17.336Z,11.94
2024-02-05T11:52:17.357Z,11.95
2024-02-05T11:53:17.346Z,11.94
2024-02-05T11:54:17.345Z,11.9
2024-02-05T11:55:17.382Z,11.97
2024-02-05T11:56:17.355Z,12.03
2024-02-05T11:57:20.262Z,11.92
2024-02-05T11:58:23.094Z,11.91
2024-02-05T12:00:17.346Z,11.69
2024-02-05T12:01:17.353Z,11.78
2024-02-05T12:02:17.326Z,11.86
2024-02-05T12:03:17.328Z,12.07
2024-02-05T12:04:17.472Z,12.21
2024-02-05T12:05:17.356Z,12.41
2024-02-05T12:06:17.351Z,12.5
2024-02-05T12:07:17.553Z,12.3
2024-02-05T12:08:17.394Z,12.2
2024-02-05T12:09:17.329Z,12.11
2024-02-05T12:10:17.357Z,12.06
2024-02-05T12:11:17.319Z,11.91
2024-02-05T12:12:17.370Z,11.78
2024-02-05T12:13:17.345Z,11.71
2024-02-05T12:14:17.335Z,11.77
2024-02-05T12:15:17.334Z,11.7
2024-02-05T12:16:17.333Z,11.69
2024-02-05T12:17:17.448Z,11.49
2024-02-05T12:18:20.517Z,11.44
2024-02-05T12:19:23.089Z,11.46
2024-02-05T12:21:17.344Z,11.69
2024-02-05T12:22:17.670Z,11.74
2024-02-05T12:23:17.328Z,11.75
2024-02-05T12:24:17.332Z,11.87
2024-02-05T12:25:28.046Z,12.08
2024-02-05T12:26:17.333Z,12.27
2024-02-05T12:27:17.617Z,12.33
2024-02-05T12:28:17.372Z,12.32
2024-02-05T12:29:17.336Z,12.33
2024-02-05T12:30:17.359Z,12.25
2024-02-05T12:31:20.897Z,12.26
2024-02-05T12:32:17.593Z,12.24
2024-02-05T12:33:18.445Z,12.21
2024-02-05T12:34:17.373Z,12.26
2024-02-05T12:35:17.436Z,12.23
2024-02-05T12:36:17.328Z,12.38
2024-02-05T12:37:17.751Z,12.34
2024-02-05T12:38:17.373Z,12.29
2024-02-05T12:39:20.786Z,12.38
2024-02-05T12:40:23.479Z,12.43
2024-02-05T12:42:17.324Z,12.68
2024-02-05T12:43:17.352Z,12.72
2024-02-05T12:44:26.664Z,12.83
2024-02-05T12:45:17.483Z,12.66
2024-02-05T12:46:17.352Z,12.44
2024-02-05T12:47:17.326Z,12.48
2024-02-05T12:48:17.348Z,12.39
2024-02-05T12:49:17.457Z,12.45
2024-02-05T12:50:17.447Z,12.56
2024-02-05T12:51:17.342Z,12.65
2024-02-05T12:52:17.395Z,12.77
2024-02-05T12:53:17.337Z,12.93
2024-02-05T12:54:17.350Z,13.04
2024-02-05T12:55:17.435Z,13.09
2024-02-05T12:56:17.456Z,13.16
2024-02-05T12:57:17.331Z,13.15
2024-02-05T12:58:17.362Z,12.92
2024-02-05T12:59:17.396Z,12.74
2024-02-05T13:00:20.581Z,12.7
2024-02-05T13:01:23.775Z,12.69
2024-02-05T13:03:17.468Z,12.75
2024-02-05T13:04:17.481Z,12.76
2024-02-05T13:05:17.518Z,12.69
2024-02-05T13:06:17.441Z,12.69
2024-02-05T13:07:17.443Z,12.75
2024-02-05T13:08:17.430Z,12.81
2024-02-05T13:09:17.324Z,12.82
2024-02-05T13:10:17.390Z,12.82
2024-02-05T13:11:17.324Z,12.87
2024-02-05T13:12:17.341Z,12.9
2024-02-05T13:13:17.372Z,12.95
2024-02-05T13:14:17.332Z,12.91
2024-02-05T13:15:17.490Z,12.92
2024-02-05T13:16:17.542Z,12.91
2024-02-05T13:17:17.576Z,12.73
2024-02-05T13:18:17.478Z,12.79
2024-02-05T13:19:21.213Z,12.82
2024-02-05T13:20:17.567Z,12.76
2024-02-05T13:21:20.651Z,12.71
2024-02-05T13:22:24.218Z,12.72
2024-02-05T13:24:17.599Z,12.79